createdAt,value
2018-11-26T00:00:45.789Z,55.80
2018-11-26T00:03:14.566Z,55.70
2018-11-26T00:05:43.350Z,55.70
2018-11-26T00:08:27.022Z,55.70
2018-11-26T00:11:59.889Z,55.70
2018-11-26T00:14:28.677Z,55.70
2018-11-26T00:16:57.449Z,55.70
2018-11-26T00:19:26.234Z,55.70
2018-11-26T00:21:55.005Z,56.30
2018-11-26T00:24:23.776Z,55.70
2018-11-26T00:26:52.581Z,55.70
2018-11-26T00:29:21.363Z,55.70
2018-11-26T00:31:50.142Z,55.70
2018-11-26T00:34:18.914Z,56.30
2018-11-26T00:36:47.690Z,55.70
2018-11-26T00:39:16.590Z,55.60
2018-11-26T00:41:45.410Z,55.60
2018-11-26T00:44:14.177Z,55.60
2018-11-26T00:46:42.967Z,55.40
2018-11-26T00:49:11.739Z,55.50
2018-11-26T00:51:40.516Z,55.60
2018-11-26T00:54:09.309Z,55.40
2018-11-26T00:56:38.078Z,55.50
2018-11-26T00:59:06.856Z,55.50
2018-11-26T01:01:35.634Z,55.50
2018-11-26T01:04:04.829Z,55.50
2018-11-26T01:06:34.516Z,55.40
2018-11-26T01:09:03.473Z,55.40
2018-11-26T01:11:32.250Z,55.30
2018-11-26T01:14:01.023Z,55.40
2018-11-26T01:16:29.806Z,55.40
2018-11-26T01:18:58.607Z,55.30
2018-11-26T01:21:27.386Z,55.30
2018-11-26T01:23:56.164Z,54.90
2018-11-26T01:26:24.954Z,55.40
2018-11-26T01:28:53.745Z,55.30
2018-11-26T01:31:22.530Z,55.30
2018-11-26T01:33:51.306Z,55.30
2018-11-26T01:36:20.098Z,55.20
2018-11-26T01:38:48.874Z,55.30
2018-11-26T01:41:17.661Z,55.20
2018-11-26T01:43:46.475Z,55.30
2018-11-26T01:46:15.251Z,55.30
2018-11-26T01:48:44.017Z,55.20
2018-11-26T01:51:12.843Z,55.20
2018-11-26T01:53:41.621Z,55.30
2018-11-26T01:56:10.606Z,55.20
2018-11-26T01:58:39.373Z,55.20
2018-11-26T02:01:08.159Z,55.30
2018-11-26T02:03:36.922Z,55.30
2018-11-26T02:06:05.828Z,55.30
2018-11-26T02:08:34.600Z,55.10
2018-11-26T02:11:03.378Z,55.30
2018-11-26T02:13:33.078Z,55.30
2018-11-26T02:16:01.862Z,55.30
2018-11-26T02:18:30.633Z,55.20
2018-11-26T02:20:59.430Z,55.30
2018-11-26T02:23:28.219Z,55.20
2018-11-26T02:25:56.998Z,55.20
2018-11-26T02:28:25.778Z,55.30
2018-11-26T02:30:54.547Z,55.30
2018-11-26T02:33:23.318Z,55.20
2018-11-26T02:35:52.157Z,55.20
2018-11-26T02:38:20.986Z,55.20
2018-11-26T02:40:49.750Z,55.20
2018-11-26T02:43:18.888Z,55.20
2018-11-26T02:45:47.666Z,55.20
2018-11-26T02:48:16.528Z,55.20
2018-11-26T02:50:45.305Z,55.20
2018-11-26T02:53:14.103Z,55.20
2018-11-26T02:55:42.880Z,55.20
2018-11-26T02:58:11.655Z,55.10
2018-11-26T03:00:40.440Z,55.20
2018-11-26T03:03:21.354Z,55.20
2018-11-26T03:05:50.117Z,55.10
2018-11-26T03:08:18.897Z,55.40
2018-11-26T03:10:47.661Z,55.10
2018-11-26T03:13:16.438Z,55.10
2018-11-26T03:15:45.216Z,55.00
2018-11-26T03:18:14.001Z,55.10
2018-11-26T03:20:42.772Z,55.00
2018-11-26T03:23:11.574Z,55.10
2018-11-26T03:25:40.366Z,55.00
2018-11-26T03:28:09.155Z,55.10
2018-11-26T03:30:37.938Z,55.00
2018-11-26T03:33:06.718Z,55.10
2018-11-26T03:35:35.493Z,55.10
2018-11-26T03:38:04.277Z,55.40
2018-11-26T03:40:33.050Z,55.10
2018-11-26T03:43:01.845Z,55.10
2018-11-26T03:45:30.618Z,55.10
2018-11-26T03:47:59.734Z,55.10
2018-11-26T03:50:28.505Z,55.00
2018-11-26T03:52:57.289Z,55.10
2018-11-26T03:55:26.054Z,55.10
2018-11-26T03:57:54.838Z,55.00
2018-11-26T04:00:23.629Z,55.00
2018-11-26T04:02:52.431Z,55.00
2018-11-26T04:05:21.235Z,55.00
2018-11-26T04:07:50.006Z,55.00
2018-11-26T04:10:18.783Z,55.00
2018-11-26T04:12:47.591Z,55.00
2018-11-26T04:15:16.375Z,55.00
2018-11-26T04:17:45.159Z,55.00
2018-11-26T04:20:14.963Z,55.00
2018-11-26T04:22:43.737Z,55.00
2018-11-26T04:25:12.519Z,55.00
2018-11-26T04:27:41.352Z,55.00
2018-11-26T04:30:11.500Z,55.00
2018-11-26T04:32:40.612Z,54.90
2018-11-26T04:35:09.782Z,54.90
2018-11-26T04:37:38.583Z,55.00
2018-11-26T04:40:09.003Z,55.00
2018-11-26T04:42:37.976Z,55.00
2018-11-26T04:45:08.321Z,54.90
2018-11-26T04:47:37.429Z,54.90
2018-11-26T04:50:08.464Z,54.90
2018-11-26T04:52:37.305Z,54.90
2018-11-26T04:55:06.664Z,54.80
2018-11-26T04:57:35.680Z,54.90
2018-11-26T05:00:06.547Z,54.90
2018-11-26T05:02:35.337Z,54.90
2018-11-26T05:05:04.379Z,54.80
2018-11-26T05:07:33.165Z,54.70
2018-11-26T05:10:02.017Z,54.80
2018-11-26T05:12:30.811Z,54.70
2018-11-26T05:14:59.595Z,54.70
2018-11-26T05:17:28.391Z,54.70
2018-11-26T05:19:57.267Z,54.70
2018-11-26T05:22:26.051Z,54.70
2018-11-26T05:24:54.852Z,54.60
2018-11-26T05:27:23.625Z,54.60
2018-11-26T05:29:52.421Z,54.60
2018-11-26T05:32:21.212Z,54.60
2018-11-26T05:34:50.016Z,54.60
2018-11-26T05:37:18.791Z,54.80
2018-11-26T05:39:47.584Z,54.90
2018-11-26T05:42:16.366Z,54.90
2018-11-26T05:44:45.168Z,55.00
2018-11-26T05:47:13.955Z,54.90
2018-11-26T05:49:42.741Z,54.90
2018-11-26T05:52:11.525Z,54.80
2018-11-26T05:54:40.307Z,54.70
2018-11-26T05:57:09.082Z,54.70
2018-11-26T05:59:37.937Z,54.70
2018-11-26T06:02:06.712Z,54.80
2018-11-26T06:04:35.488Z,54.80
2018-11-26T06:07:04.594Z,54.70
2018-11-26T06:09:33.447Z,54.50
2018-11-26T06:12:02.182Z,54.20
2018-11-26T06:14:30.968Z,54.10
2018-11-26T06:16:59.753Z,54.10
2018-11-26T06:19:28.540Z,54.20
2018-11-26T06:21:57.320Z,54.10
2018-11-26T06:24:26.098Z,54.20
2018-11-26T06:26:54.912Z,54.30
2018-11-26T06:29:23.698Z,54.50
2018-11-26T06:31:52.474Z,54.50
2018-11-26T06:34:21.270Z,54.70
2018-11-26T06:36:50.069Z,55.00
2018-11-26T06:39:18.888Z,55.20
2018-11-26T06:41:47.702Z,55.20
2018-11-26T06:44:17.442Z,55.30
2018-11-26T06:46:46.252Z,55.40
2018-11-26T06:49:15.222Z,55.60
2018-11-26T06:51:44.589Z,55.80
2018-11-26T06:54:13.391Z,55.70
2018-11-26T06:56:42.330Z,55.50
2018-11-26T06:59:11.119Z,55.40
2018-11-26T07:01:39.929Z,55.70
2018-11-26T07:04:08.730Z,56.30
2018-11-26T07:06:37.509Z,55.80
2018-11-26T07:09:08.143Z,56.00
2018-11-26T07:11:36.390Z,56.10
2018-11-26T07:14:05.365Z,56.20
2018-11-26T07:16:34.143Z,56.20
2018-11-26T07:19:02.930Z,56.30
2018-11-26T07:21:31.722Z,56.50
2018-11-26T07:24:00.512Z,56.60
2018-11-26T07:26:29.311Z,56.60
2018-11-26T07:28:58.081Z,56.60
2018-11-26T07:31:26.871Z,56.70
2018-11-26T07:33:55.679Z,56.70
2018-11-26T07:36:24.463Z,56.70
2018-11-26T07:38:53.247Z,56.70
2018-11-26T07:41:22.037Z,56.80
2018-11-26T07:43:50.833Z,56.70
2018-11-26T07:46:19.636Z,56.80
2018-11-26T07:48:48.442Z,56.90
2018-11-26T07:51:17.302Z,56.80
2018-11-26T07:53:46.626Z,56.90
2018-11-26T07:56:15.420Z,56.60
2018-11-26T07:58:44.207Z,56.40
2018-11-26T08:01:13.052Z,56.30
2018-11-26T08:03:42.254Z,56.80
2018-11-26T08:06:11.029Z,56.20
2018-11-26T08:08:40.773Z,56.30
2018-11-26T08:11:09.570Z,55.70
2018-11-26T08:13:38.366Z,55.50
2018-11-26T08:16:07.154Z,55.60
2018-11-26T08:18:35.971Z,55.90
2018-11-26T08:24:05.138Z,56.20
2018-11-26T08:26:33.923Z,56.40
2018-11-26T08:29:02.713Z,56.50
2018-11-26T08:31:31.528Z,56.60
2018-11-26T08:34:01.042Z,56.70
2018-11-26T08:36:33.771Z,56.70
2018-11-26T08:39:10.905Z,56.80
2018-11-26T08:41:45.375Z,56.80
2018-11-26T08:44:18.450Z,56.80
2018-11-26T08:46:47.243Z,56.90
2018-11-26T08:49:22.773Z,56.90
2018-11-26T08:51:51.622Z,57.00
2018-11-26T08:54:20.421Z,57.00
2018-11-26T08:56:49.201Z,56.90
2018-11-26T08:59:18.036Z,57.00
2018-11-26T09:01:51.586Z,57.00
2018-11-26T09:04:20.924Z,56.90
2018-11-26T09:06:50.876Z,56.40
2018-11-26T09:09:19.800Z,56.30
2018-11-26T09:11:49.390Z,56.10
2018-11-26T09:14:19.036Z,56.60
2018-11-26T09:16:47.799Z,57.00
2018-11-26T09:19:16.607Z,56.50
2018-11-26T09:21:45.391Z,56.60
2018-11-26T09:24:14.183Z,56.70
2018-11-26T09:26:42.971Z,56.80
2018-11-26T09:29:11.755Z,57.00
2018-11-26T09:31:40.570Z,57.10
2018-11-26T09:34:09.348Z,57.30
2018-11-26T09:36:38.150Z,57.50
2018-11-26T09:39:11.554Z,57.40
2018-11-26T09:41:40.697Z,57.50
2018-11-26T09:44:10.124Z,57.40
2018-11-26T09:46:38.908Z,57.10
2018-11-26T09:49:07.722Z,57.00
2018-11-26T09:51:41.944Z,57.20
2018-11-26T09:54:05.591Z,57.30
2018-11-26T09:56:34.436Z,57.30
2018-11-26T09:59:03.453Z,57.50
2018-11-26T10:01:32.153Z,57.50
2018-11-26T10:04:00.936Z,57.60
2018-11-26T10:06:29.727Z,57.60
2018-11-26T10:08:58.517Z,57.60
2018-11-26T10:11:27.386Z,57.60
2018-11-26T10:13:56.159Z,57.40
2018-11-26T10:16:25.016Z,57.20
2018-11-26T10:18:53.778Z,56.90
2018-11-26T10:21:22.565Z,56.90
2018-11-26T10:23:51.368Z,56.90
2018-11-26T10:26:21.362Z,57.60
2018-11-26T10:28:50.152Z,57.00
2018-11-26T10:31:18.949Z,57.00
2018-11-26T10:33:48.985Z,57.10
2018-11-26T10:36:19.017Z,57.10
2018-11-26T10:38:47.819Z,57.10
2018-11-26T10:41:16.653Z,57.20
2018-11-26T10:43:45.424Z,57.20
2018-11-26T10:46:14.221Z,57.20
2018-11-26T10:48:43.084Z,57.00
2018-11-26T10:51:11.899Z,57.10
2018-11-26T10:53:41.358Z,56.90
2018-11-26T10:56:10.112Z,57.00
2018-11-26T10:58:38.902Z,57.10
2018-11-26T11:01:13.051Z,57.10
2018-11-26T11:03:41.845Z,57.10
2018-11-26T11:06:10.642Z,57.30
2018-11-26T11:08:39.421Z,57.20
2018-11-26T11:11:08.260Z,57.20
2018-11-26T11:13:37.215Z,57.20
2018-11-26T11:16:06.736Z,57.20
2018-11-26T11:18:35.561Z,57.20
2018-11-26T11:21:04.352Z,57.20
2018-11-26T11:23:33.218Z,57.20
2018-11-26T11:26:02.092Z,57.10
2018-11-26T11:28:30.952Z,57.10
2018-11-26T11:30:59.846Z,57.20
2018-11-26T11:33:28.779Z,57.20
2018-11-26T11:35:57.581Z,57.20
2018-11-26T11:38:26.350Z,57.20
2018-11-26T11:40:55.159Z,57.20
2018-11-26T11:43:23.950Z,57.30
2018-11-26T11:45:52.760Z,57.30
2018-11-26T11:48:21.542Z,57.30
2018-11-26T11:50:50.362Z,57.30
2018-11-26T11:53:19.282Z,57.30
2018-11-26T11:55:48.077Z,57.30
2018-11-26T11:58:16.979Z,57.30
2018-11-26T12:00:47.446Z,57.30
2018-11-26T12:03:17.446Z,57.30
2018-11-26T12:05:46.237Z,57.20
2018-11-26T12:08:15.333Z,57.20
2018-11-26T12:10:44.158Z,57.30
2018-11-26T12:13:14.026Z,57.40
2018-11-26T12:15:51.872Z,57.40
2018-11-26T12:18:20.815Z,57.50
2018-11-26T12:20:49.594Z,57.20
2018-11-26T12:23:18.382Z,57.50
2018-11-26T12:25:47.334Z,57.50
2018-11-26T12:28:16.118Z,57.50
2018-11-26T12:30:46.001Z,57.50
2018-11-26T12:33:14.786Z,57.10
2018-11-26T12:35:43.643Z,57.40
2018-11-26T12:38:12.495Z,57.40
2018-11-26T12:40:41.309Z,57.50
2018-11-26T12:43:10.067Z,57.50
2018-11-26T12:45:38.877Z,57.60
2018-11-26T12:48:07.888Z,57.40
2018-11-26T12:50:36.643Z,57.40
2018-11-26T12:53:05.978Z,57.50
2018-11-26T12:55:37.213Z,57.60
2018-11-26T12:58:07.394Z,57.70
2018-11-26T13:00:37.211Z,57.80
2018-11-26T13:03:08.445Z,57.80
2018-11-26T13:05:37.242Z,58.40
2018-11-26T13:08:06.328Z,57.80
2018-11-26T13:10:35.112Z,57.80
2018-11-26T13:13:06.998Z,57.80
2018-11-26T13:15:40.889Z,57.80
2018-11-26T13:18:10.757Z,57.80
2018-11-26T13:20:39.611Z,57.80
2018-11-26T13:23:09.391Z,57.80
2018-11-26T13:25:42.951Z,58.40
2018-11-26T13:28:12.493Z,57.90
2018-11-26T13:30:44.172Z,57.90
2018-11-26T13:33:15.384Z,57.80
2018-11-26T13:35:45.222Z,57.40
2018-11-26T13:38:14.031Z,57.40
2018-11-26T13:40:42.826Z,57.50
2018-11-26T13:43:15.881Z,57.60
2018-11-26T13:45:46.733Z,57.60
2018-11-26T13:48:17.672Z,57.60
2018-11-26T13:50:48.531Z,57.60
2018-11-26T13:53:17.314Z,57.50
2018-11-26T13:55:46.099Z,57.20
2018-11-26T13:58:14.888Z,58.10
2018-11-26T14:00:43.778Z,57.50
2018-11-26T14:03:12.586Z,57.60
2018-11-26T14:05:41.588Z,57.60
2018-11-26T14:08:10.386Z,57.70
2018-11-26T14:10:39.174Z,57.70
2018-11-26T14:13:09.651Z,57.20
2018-11-26T14:15:38.649Z,57.80
2018-11-26T14:18:07.460Z,57.80
2018-11-26T14:20:36.300Z,57.70
2018-11-26T14:23:05.838Z,57.70
2018-11-26T14:25:34.757Z,57.50
2018-11-26T14:28:03.633Z,57.10
2018-11-26T14:30:32.429Z,57.10
2018-11-26T14:33:01.210Z,57.10
2018-11-26T14:35:30.001Z,57.20
2018-11-26T14:38:01.539Z,57.30
2018-11-26T14:40:41.530Z,57.30
2018-11-26T14:43:10.327Z,56.90
2018-11-26T14:45:39.126Z,56.90
2018-11-26T14:48:07.908Z,57.10
2018-11-26T14:50:37.680Z,57.30
2018-11-26T14:53:07.570Z,57.30
2018-11-26T14:55:37.916Z,57.80
2018-11-26T14:58:06.995Z,57.50
2018-11-26T15:00:36.674Z,57.60
2018-11-26T15:03:06.123Z,57.60
2018-11-26T15:05:34.998Z,57.70
2018-11-26T15:08:03.931Z,57.60
2018-11-26T15:10:33.580Z,57.70
2018-11-26T15:13:02.587Z,57.80
2018-11-26T15:15:31.406Z,57.70
2018-11-26T15:18:00.220Z,57.70
2018-11-26T15:20:30.017Z,57.40
2018-11-26T15:22:59.858Z,57.80
2018-11-26T15:25:32.261Z,57.80
2018-11-26T15:28:06.516Z,57.80
2018-11-26T15:30:35.359Z,57.90
2018-11-26T15:33:04.253Z,57.90
2018-11-26T15:35:33.168Z,57.80
2018-11-26T15:38:01.972Z,58.00
2018-11-26T15:40:30.778Z,57.70
2018-11-26T15:42:59.813Z,57.70
2018-11-26T15:45:29.366Z,57.60
2018-11-26T15:47:59.458Z,57.60
2018-11-26T15:50:28.243Z,57.60
2018-11-26T15:52:57.156Z,57.30
2018-11-26T15:55:25.957Z,57.20
2018-11-26T15:57:54.767Z,57.20
2018-11-26T16:00:24.823Z,56.80
2018-11-26T16:02:53.766Z,57.30
2018-11-26T16:05:24.830Z,57.30
2018-11-26T16:07:54.681Z,57.30
2018-11-26T16:10:23.467Z,57.30
2018-11-26T16:12:55.850Z,57.20
2018-11-26T16:15:26.915Z,57.20
2018-11-26T16:17:57.221Z,57.30
2018-11-26T16:20:26.846Z,57.40
2018-11-26T16:22:56.430Z,57.40
2018-11-26T16:25:25.386Z,57.40
2018-11-26T16:27:55.296Z,57.40
2018-11-26T16:30:25.880Z,57.40
2018-11-26T16:32:57.000Z,57.50
2018-11-26T16:35:31.231Z,57.50
2018-11-26T16:38:00.346Z,57.60
2018-11-26T16:40:29.136Z,57.60
2018-11-26T16:42:58.590Z,57.60
2018-11-26T16:45:28.929Z,57.60
2018-11-26T16:48:05.957Z,57.60
2018-11-26T16:50:36.553Z,57.60
2018-11-26T16:53:06.892Z,57.60
2018-11-26T16:55:35.832Z,57.50
2018-11-26T16:58:04.823Z,57.50
2018-11-26T17:00:33.778Z,57.50
2018-11-26T17:03:02.630Z,57.50
2018-11-26T17:05:34.819Z,57.50
2018-11-26T17:08:03.603Z,57.50
2018-11-26T17:10:32.375Z,57.50
2018-11-26T17:13:01.171Z,57.50
2018-11-26T17:15:29.963Z,57.40
2018-11-26T17:17:58.757Z,57.40
2018-11-26T17:20:27.547Z,57.30
2018-11-26T17:22:56.417Z,57.00
2018-11-26T17:25:25.299Z,57.00
2018-11-26T17:27:54.906Z,56.30
2018-11-26T17:30:25.417Z,56.50
2018-11-26T17:32:58.802Z,56.60
2018-11-26T17:35:28.010Z,56.70
2018-11-26T17:37:56.795Z,56.70
2018-11-26T17:40:26.071Z,56.80
2018-11-26T17:42:55.328Z,56.80
2018-11-26T17:45:24.726Z,56.80
2018-11-26T17:47:56.520Z,56.90
2018-11-26T17:50:29.402Z,56.90
2018-11-26T17:52:58.383Z,56.90
2018-11-26T17:55:27.179Z,56.90
2018-11-26T17:57:55.969Z,56.90
2018-11-26T18:00:26.510Z,56.90
2018-11-26T18:02:55.305Z,57.00
2018-11-26T18:05:25.614Z,57.00
2018-11-26T18:08:01.106Z,57.00
2018-11-26T18:10:30.849Z,57.10
2018-11-26T18:12:59.658Z,57.00
2018-11-26T18:15:28.430Z,57.00
2018-11-26T18:17:57.226Z,57.00
2018-11-26T18:20:26.010Z,57.00
2018-11-26T18:22:55.144Z,57.10
2018-11-26T18:25:24.639Z,56.80
2018-11-26T18:28:11.579Z,57.10
2018-11-26T18:30:42.798Z,56.70
2018-11-26T18:33:11.622Z,56.80
2018-11-26T18:35:40.924Z,56.80
2018-11-26T18:38:09.747Z,57.00
2018-11-26T18:40:39.894Z,57.00
2018-11-26T18:43:10.088Z,57.10
2018-11-26T18:45:39.847Z,57.10
2018-11-26T18:48:09.774Z,57.10
2018-11-26T18:50:38.846Z,57.20
2018-11-26T18:53:08.251Z,57.10
2018-11-26T18:55:38.159Z,57.10
2018-11-26T18:58:07.141Z,57.10
2018-11-26T19:00:40.896Z,57.10
2018-11-26T19:03:09.692Z,57.10
2018-11-26T19:05:38.486Z,57.10
2018-11-26T19:08:07.287Z,57.10
2018-11-26T19:10:37.160Z,57.10
2018-11-26T19:13:09.833Z,57.10
2018-11-26T19:15:40.094Z,57.20
2018-11-26T19:18:13.434Z,57.20
2018-11-26T19:20:42.272Z,57.20
2018-11-26T19:23:11.176Z,57.30
2018-11-26T19:25:40.063Z,57.30
2018-11-26T19:28:08.920Z,57.20
2018-11-26T19:30:37.864Z,57.20
2018-11-26T19:33:08.086Z,57.30
2018-11-26T19:35:36.974Z,57.20
2018-11-26T19:38:07.043Z,57.20
2018-11-26T19:40:36.973Z,57.20
2018-11-26T19:43:06.389Z,57.40
2018-11-26T19:45:35.562Z,57.40
2018-11-26T19:48:04.518Z,57.30
2018-11-26T19:50:33.334Z,57.30
2018-11-26T19:53:02.485Z,57.30
2018-11-26T19:55:31.281Z,57.30
2018-11-26T19:58:00.079Z,57.40
2018-11-26T20:00:30.037Z,57.30
2018-11-26T20:03:09.042Z,57.40
2018-11-26T20:06:00.249Z,57.40
2018-11-26T20:08:29.109Z,57.40
2018-11-26T20:10:58.090Z,57.30
2018-11-26T20:13:26.893Z,57.20
2018-11-26T20:15:55.716Z,57.20
2018-11-26T20:18:28.500Z,57.10
2018-11-26T20:20:53.361Z,57.00
2018-11-26T20:23:22.237Z,56.90
2018-11-26T20:25:52.195Z,56.90
2018-11-26T20:28:19.992Z,56.80
2018-11-26T20:30:48.798Z,56.80
2018-11-26T20:33:17.681Z,56.20
2018-11-26T20:35:47.116Z,56.70
2018-11-26T20:38:16.565Z,56.60
2018-11-26T20:40:45.384Z,56.60
2018-11-26T20:43:14.851Z,56.70
2018-11-26T20:45:45.595Z,56.60
2018-11-26T20:48:14.402Z,56.60
2018-11-26T20:50:45.645Z,56.60
2018-11-26T20:53:14.441Z,56.60
2018-11-26T20:55:43.385Z,56.50
2018-11-26T20:58:12.285Z,56.50
2018-11-26T21:00:42.128Z,56.40
2018-11-26T21:03:11.389Z,56.40
2018-11-26T21:05:41.096Z,56.40
2018-11-26T21:08:10.051Z,56.40
2018-11-26T21:10:39.026Z,56.30
2018-11-26T21:13:08.511Z,56.30
2018-11-26T21:15:37.491Z,56.40
2018-11-26T21:18:12.143Z,56.30
2018-11-26T21:20:42.717Z,56.20
2018-11-26T21:23:14.277Z,56.30
2018-11-26T21:25:43.232Z,56.20
2018-11-26T21:28:12.219Z,56.30
2018-11-26T21:30:41.026Z,56.30
2018-11-26T21:33:09.840Z,56.10
2018-11-26T21:35:38.637Z,55.70
2018-11-26T21:38:09.480Z,55.70
2018-11-26T21:40:39.431Z,55.70
2018-11-26T21:43:09.026Z,55.80
2018-11-26T21:45:41.868Z,55.80
2018-11-26T21:48:10.697Z,55.80
2018-11-26T21:50:39.610Z,55.90
2018-11-26T21:53:08.609Z,55.90
2018-11-26T21:55:37.719Z,55.90
2018-11-26T21:58:06.995Z,55.90
2018-11-26T22:00:36.237Z,55.90
2018-11-26T22:03:12.654Z,55.90
2018-11-26T22:05:42.425Z,55.90
2018-11-26T22:08:11.796Z,55.80
2018-11-26T22:10:42.257Z,55.80
2018-11-26T22:13:12.712Z,55.80
2018-11-26T22:15:41.527Z,55.70
2018-11-26T22:18:10.341Z,55.70
2018-11-26T22:20:39.138Z,55.60
2018-11-26T22:23:08.587Z,55.50
2018-11-26T22:25:37.641Z,55.50
2018-11-26T22:28:08.874Z,55.60
2018-11-26T22:30:38.161Z,55.60
2018-11-26T22:33:07.051Z,55.50
2018-11-26T22:35:35.822Z,55.50
2018-11-26T22:38:04.618Z,55.50
2018-11-26T22:40:33.458Z,55.50
2018-11-26T22:43:02.198Z,55.50
2018-11-26T22:45:32.985Z,55.50
2018-11-26T22:48:05.438Z,55.50
2018-11-26T22:50:34.419Z,55.40
2018-11-26T22:53:03.215Z,55.40
2018-11-26T22:55:32.023Z,55.40
2018-11-26T22:58:01.609Z,55.30
2018-11-26T23:00:37.277Z,55.80
2018-11-26T23:03:06.280Z,55.20
2018-11-26T23:05:35.093Z,55.20
2018-11-26T23:08:03.886Z,55.10
2018-11-26T23:10:32.675Z,55.10
2018-11-26T23:13:01.473Z,55.10
2018-11-26T23:15:30.258Z,55.10
2018-11-26T23:17:59.050Z,55.00
2018-11-26T23:20:27.842Z,55.00
2018-11-26T23:22:56.697Z,55.00
2018-11-26T23:25:25.499Z,55.00
2018-11-26T23:27:54.283Z,55.00
2018-11-26T23:30:25.209Z,55.00
2018-11-26T23:32:58.074Z,55.00
2018-11-26T23:35:26.894Z,54.90
2018-11-26T23:37:55.678Z,55.30
2018-11-26T23:40:24.701Z,54.90
2018-11-26T23:42:53.902Z,54.80
2018-11-26T23:45:24.678Z,54.80
2018-11-26T23:47:53.474Z,54.80
2018-11-26T23:50:22.615Z,54.70
2018-11-26T23:52:51.375Z,54.70
2018-11-26T23:55:22.205Z,54.70
2018-11-26T23:57:51.020Z,54.70
